createdAt,value
2019-05-19T01:03:32.820Z,11.60
2019-05-19T02:30:44.490Z,10.84
2019-05-19T04:23:32.641Z,10.31
2019-05-19T04:26:02.190Z,10.36
2019-05-19T04:28:53.567Z,10.43
2019-05-19T04:31:25.745Z,10.48
2019-05-19T04:34:10.651Z,10.54
2019-05-19T04:36:42.751Z,10.60
2019-05-19T04:39:16.675Z,10.66
2019-05-19T04:58:01.315Z,11.20
2019-05-19T05:33:52.642Z,13.03
2019-05-19T05:36:23.482Z,13.20
2019-05-19T05:45:49.563Z,16.03
2019-05-19T05:51:16.827Z,18.76
2019-05-19T06:02:36.910Z,23.50
2019-05-19T06:05:08.077Z,24.42
2019-05-19T06:07:42.840Z,25.31
2019-05-19T06:10:12.723Z,26.06
2019-05-19T06:12:41.685Z,26.69
2019-05-19T06:15:14.450Z,27.14
2019-05-19T06:17:49.011Z,27.55
2019-05-19T06:20:19.055Z,27.91
2019-05-19T06:22:56.634Z,27.51
2019-05-19T06:25:18.976Z,26.42
2019-05-19T06:27:48.042Z,25.28
2019-05-19T06:30:19.825Z,25.21
2019-05-19T06:32:51.061Z,25.71
2019-05-19T06:35:20.025Z,26.30
2019-05-19T06:37:48.912Z,26.28
2019-05-19T06:40:18.253Z,26.58
2019-05-19T06:42:47.221Z,26.78
2019-05-19T06:45:16.990Z,27.30
2019-05-19T06:47:46.436Z,26.71
2019-05-19T06:50:17.072Z,25.75
2019-05-19T06:52:46.020Z,26.63
2019-05-19T06:55:15.154Z,26.64
2019-05-19T06:57:44.094Z,26.29
2019-05-19T07:00:14.791Z,26.23
2019-05-19T07:02:43.879Z,26.25
2019-05-19T07:05:15.200Z,26.49
2019-05-19T07:07:44.046Z,26.37
2019-05-19T07:10:12.982Z,25.54
2019-05-19T07:12:43.332Z,26.29
2019-05-19T07:15:12.642Z,25.45
2019-05-19T07:17:41.829Z,24.08
2019-05-19T07:20:13.208Z,24.11
2019-05-19T07:22:42.276Z,23.27
2019-05-19T07:25:11.243Z,23.48
2019-05-19T07:27:40.442Z,23.45
2019-05-19T07:30:09.633Z,22.31
2019-05-19T07:32:41.740Z,22.71
2019-05-19T07:35:10.973Z,22.78
2019-05-19T07:37:40.147Z,22.86
2019-05-19T07:40:12.358Z,22.56
2019-05-19T07:42:41.195Z,22.24
2019-05-19T07:45:10.365Z,21.96
2019-05-19T07:47:41.450Z,22.06
2019-05-19T07:50:10.587Z,22.13
2019-05-19T07:52:39.501Z,22.17
2019-05-19T07:55:09.349Z,21.59
2019-05-19T07:57:38.213Z,21.61
2019-05-19T08:00:10.270Z,21.70
2019-05-19T08:02:39.220Z,22.03
2019-05-19T08:05:10.906Z,22.07
2019-05-19T08:07:49.343Z,22.01
2019-05-19T08:10:18.316Z,22.29
2019-05-19T08:12:49.644Z,22.37
2019-05-19T08:15:22.529Z,22.28
2019-05-19T08:17:52.026Z,22.06
2019-05-19T08:26:06.403Z,22.21
2019-05-19T08:40:06.956Z,22.09
2019-05-19T08:54:28.248Z,22.58
2019-05-19T08:56:57.379Z,22.42
2019-05-19T09:08:29.097Z,22.58
2019-05-19T09:24:29.620Z,22.65
2019-05-19T09:26:53.566Z,22.68
2019-05-19T09:32:37.565Z,22.63
2019-05-19T09:35:07.863Z,22.33
2019-05-19T09:37:41.544Z,22.50
2019-05-19T09:40:12.459Z,22.47
2019-05-19T09:42:44.165Z,22.43
2019-05-19T09:45:13.932Z,22.68
2019-05-19T09:47:47.034Z,22.77
2019-05-19T09:50:21.808Z,22.86
2019-05-19T09:52:56.195Z,23.07
2019-05-19T09:55:25.885Z,23.14
2019-05-19T09:57:56.015Z,22.91
2019-05-19T10:00:31.432Z,23.17
2019-05-19T10:03:00.355Z,23.38
2019-05-19T10:05:29.784Z,23.34
2019-05-19T10:08:01.135Z,23.40
2019-05-19T10:10:36.505Z,23.50
2019-05-19T10:13:05.817Z,23.19
2019-05-19T10:15:34.958Z,23.49
2019-05-19T10:18:09.905Z,23.56
2019-05-19T10:20:42.546Z,23.52
2019-05-19T10:23:11.616Z,23.43
2019-05-19T10:25:41.038Z,23.46
2019-05-19T10:28:16.612Z,23.38
2019-05-19T10:30:46.153Z,23.50
2019-05-19T10:33:15.049Z,23.61
2019-05-19T10:35:43.959Z,23.63
2019-05-19T10:38:13.063Z,23.59
2019-05-19T10:40:44.259Z,23.24
2019-05-19T10:43:14.498Z,23.47
2019-05-19T10:45:44.925Z,23.49
2019-05-19T10:48:14.294Z,23.52
2019-05-19T10:50:44.613Z,23.54
2019-05-19T10:53:13.507Z,23.60
2019-05-19T10:55:45.018Z,23.57
2019-05-19T10:58:13.787Z,23.72
2019-05-19T11:00:43.528Z,23.69
2019-05-19T11:03:22.282Z,23.56
2019-05-19T11:05:51.192Z,23.56
2019-05-19T11:08:24.521Z,23.55
2019-05-19T11:10:55.036Z,23.63
2019-05-19T11:13:24.983Z,23.50
2019-05-19T11:16:06.679Z,23.47
2019-05-19T11:18:37.556Z,23.72
2019-05-19T11:21:07.151Z,23.69
2019-05-19T11:23:36.269Z,23.72
2019-05-19T11:26:05.526Z,23.66
2019-05-19T11:28:34.737Z,23.78
2019-05-19T11:31:04.893Z,23.70
2019-05-19T11:33:39.871Z,23.79
2019-05-19T11:36:19.903Z,23.71
2019-05-19T11:38:53.842Z,23.73
2019-05-19T11:41:24.873Z,23.78
2019-05-19T11:43:54.260Z,23.77
2019-05-19T11:46:23.246Z,23.70
2019-05-19T11:48:52.983Z,23.70
2019-05-19T11:51:23.143Z,23.63
2019-05-19T11:53:52.661Z,23.74
2019-05-19T11:56:28.621Z,23.75
2019-05-19T11:59:04.639Z,23.87
2019-05-19T12:01:34.743Z,23.88
2019-05-19T12:04:04.059Z,23.73
2019-05-19T12:06:41.062Z,23.92
2019-05-19T12:09:16.191Z,24.00
2019-05-19T12:11:48.532Z,24.09
2019-05-19T12:14:19.366Z,24.10
2019-05-19T12:16:49.660Z,24.13
2019-05-19T12:19:18.596Z,24.11
2019-05-19T12:21:47.603Z,23.99
2019-05-19T12:24:17.873Z,23.98
2019-05-19T12:26:49.938Z,24.06
2019-05-19T12:29:22.043Z,24.15
2019-05-19T12:31:51.305Z,24.13
2019-05-19T12:34:20.398Z,24.24
2019-05-19T12:36:56.891Z,24.18
2019-05-19T12:39:25.965Z,24.26
2019-05-19T12:41:57.879Z,24.21
2019-05-19T12:44:30.032Z,24.15
2019-05-19T12:46:58.958Z,24.22
2019-05-19T12:49:38.824Z,24.24
2019-05-19T12:52:14.672Z,24.24
2019-05-19T12:54:43.875Z,24.35
2019-05-19T12:57:13.800Z,24.37
2019-05-19T12:59:42.718Z,24.45
2019-05-19T13:02:11.634Z,24.38
2019-05-19T13:05:03.566Z,24.45
2019-05-19T13:07:20.179Z,24.34
2019-05-19T13:09:49.176Z,24.34
2019-05-19T13:12:18.185Z,24.40
2019-05-19T13:14:50.249Z,24.38
2019-05-19T13:17:19.241Z,24.44
2019-05-19T13:19:48.521Z,24.44
2019-05-19T13:22:20.197Z,24.56
2019-05-19T13:24:52.138Z,24.47
2019-05-19T13:27:22.368Z,24.61
2019-05-19T13:29:51.402Z,24.59
2019-05-19T13:32:22.242Z,24.52
2019-05-19T13:34:51.354Z,24.57
2019-05-19T13:37:20.305Z,24.64
2019-05-19T13:39:56.252Z,24.68
2019-05-19T13:42:27.614Z,24.67
2019-05-19T13:44:56.479Z,24.71
2019-05-19T13:47:25.431Z,24.67
2019-05-19T13:49:57.645Z,24.60
2019-05-19T13:52:26.568Z,24.71
2019-05-19T13:54:55.569Z,24.70
2019-05-19T13:57:24.443Z,24.64
2019-05-19T13:59:53.418Z,24.58
2019-05-19T14:02:22.718Z,24.61
2019-05-19T14:05:01.810Z,24.58
2019-05-19T14:07:30.787Z,24.58
2019-05-19T14:09:59.718Z,24.57
2019-05-19T14:12:28.559Z,24.47
2019-05-19T14:14:57.598Z,24.41
2019-05-19T14:17:26.441Z,24.41
2019-05-19T14:19:58.819Z,24.41
2019-05-19T14:22:27.812Z,24.39
2019-05-19T14:24:57.729Z,24.42
2019-05-19T14:27:30.113Z,24.45
2019-05-19T14:29:57.797Z,24.37
2019-05-19T14:32:26.788Z,24.24
2019-05-19T14:34:55.951Z,24.29
2019-05-19T14:37:26.462Z,24.24
2019-05-19T14:39:55.588Z,24.22
2019-05-19T14:42:42.062Z,24.03
2019-05-19T14:45:12.037Z,23.78
2019-05-19T14:47:41.198Z,23.86
2019-05-19T14:50:10.198Z,23.86
2019-05-19T14:52:39.015Z,23.96
2019-05-19T14:55:07.870Z,23.99
2019-05-19T14:57:45.122Z,24.06
2019-05-19T15:00:12.775Z,24.07
2019-05-19T15:02:47.551Z,24.11
2019-05-19T15:05:16.404Z,24.15
2019-05-19T15:07:50.322Z,24.14
2019-05-19T15:10:22.846Z,24.04
2019-05-19T15:12:56.469Z,24.11
2019-05-19T15:15:25.298Z,24.14
2019-05-19T15:17:54.529Z,24.16
2019-05-19T15:20:24.641Z,24.20
2019-05-19T15:22:53.474Z,24.19
2019-05-19T15:25:22.507Z,24.02
2019-05-19T15:27:59.675Z,23.81
2019-05-19T15:30:25.154Z,23.67
2019-05-19T15:32:55.150Z,23.59
2019-05-19T15:35:25.543Z,23.50
2019-05-19T15:37:55.614Z,23.50
2019-05-19T15:40:24.688Z,23.11
2019-05-19T15:42:58.055Z,23.18
2019-05-19T15:45:26.920Z,23.05
2019-05-19T15:47:58.996Z,22.94
2019-05-19T15:50:27.860Z,22.95
2019-05-19T15:52:56.843Z,22.86
2019-05-19T15:55:25.714Z,22.63
2019-05-19T15:57:54.967Z,22.34
2019-05-19T16:00:23.951Z,22.05
2019-05-19T16:02:53.192Z,21.79
2019-05-19T16:05:23.350Z,21.87
2019-05-19T16:07:53.258Z,21.66
2019-05-19T16:10:22.114Z,21.68
2019-05-19T16:12:51.359Z,21.59
2019-05-19T16:15:22.995Z,21.48
2019-05-19T16:17:56.124Z,21.34
2019-05-19T16:20:25.387Z,21.06
2019-05-19T16:22:55.604Z,20.91
2019-05-19T16:25:24.460Z,20.77
2019-05-19T16:27:57.567Z,20.56
2019-05-19T16:30:26.500Z,20.28
2019-05-19T16:32:55.523Z,19.92
2019-05-19T16:35:24.596Z,19.54
2019-05-19T16:37:53.903Z,19.20
2019-05-19T16:40:23.340Z,19.07
2019-05-19T16:42:52.412Z,18.90
2019-05-19T16:45:22.784Z,18.77
2019-05-19T16:47:51.760Z,18.71
2019-05-19T16:50:21.094Z,18.64
2019-05-19T16:52:51.275Z,18.56
2019-05-19T16:55:32.022Z,18.53
2019-05-19T16:58:03.043Z,18.45
2019-05-19T17:00:37.072Z,18.36
2019-05-19T17:03:12.310Z,18.32
2019-05-19T17:05:41.272Z,18.27
2019-05-19T17:08:10.223Z,18.25
2019-05-19T17:10:39.102Z,18.26
2019-05-19T17:13:07.972Z,18.21
2019-05-19T17:15:38.890Z,18.25
2019-05-19T17:18:08.356Z,18.30
2019-05-19T17:20:37.566Z,18.32
2019-05-19T17:23:06.482Z,18.31
2019-05-19T17:25:35.339Z,18.33
2019-05-19T17:28:06.294Z,18.33
2019-05-19T17:30:35.186Z,18.29
2019-05-19T17:33:04.405Z,18.27
2019-05-19T17:35:33.261Z,18.18
2019-05-19T17:38:02.272Z,18.16
2019-05-19T17:40:31.151Z,18.16
2019-05-19T17:43:03.241Z,18.01
2019-05-19T17:45:32.132Z,18.04
2019-05-19T17:48:10.164Z,18.00
2019-05-19T17:50:33.633Z,17.92
2019-05-19T17:53:04.013Z,17.93
2019-05-19T17:55:34.000Z,17.87
2019-05-19T17:58:06.247Z,17.82
2019-05-19T18:00:37.158Z,17.82
2019-05-19T18:03:06.307Z,17.72
2019-05-19T18:05:35.321Z,17.71
2019-05-19T18:08:04.352Z,17.61
2019-05-19T18:10:33.543Z,17.48
2019-05-19T18:13:02.496Z,17.43
2019-05-19T18:15:31.389Z,17.36
2019-05-19T18:18:00.266Z,17.33
2019-05-19T18:20:29.094Z,17.24
2019-05-19T18:22:58.593Z,17.15
2019-05-19T18:25:27.596Z,16.99
2019-05-19T18:27:56.472Z,16.89
2019-05-19T18:30:25.441Z,16.77
2019-05-19T18:32:54.328Z,16.61
2019-05-19T18:35:29.079Z,16.51
2019-05-19T18:38:00.139Z,16.46
2019-05-19T18:40:38.561Z,16.36
2019-05-19T18:43:14.348Z,16.30
2019-05-19T18:45:43.286Z,16.15
2019-05-19T18:48:18.412Z,16.08
2019-05-19T18:51:03.859Z,16.01
2019-05-19T18:53:34.940Z,15.95
2019-05-19T18:56:10.483Z,15.87
2019-05-19T18:58:39.369Z,15.84
2019-05-19T19:01:08.429Z,15.74
2019-05-19T19:03:37.544Z,15.63
2019-05-19T19:06:06.770Z,15.58
2019-05-19T19:08:38.030Z,15.49
2019-05-19T19:11:06.955Z,15.40
2019-05-19T19:13:35.802Z,15.28
2019-05-19T19:16:04.750Z,15.27
2019-05-19T19:18:37.841Z,15.25
2019-05-19T19:21:06.774Z,15.15
2019-05-19T19:23:36.982Z,15.08
2019-05-19T19:26:05.929Z,15.02
2019-05-19T19:28:34.742Z,14.94
2019-05-19T19:31:03.713Z,14.90
2019-05-19T19:33:32.515Z,14.84
2019-05-19T19:36:01.661Z,14.77
2019-05-19T19:38:31.012Z,14.80
2019-05-19T19:41:00.435Z,14.78
2019-05-19T19:43:29.239Z,14.73
2019-05-19T19:45:58.074Z,14.74
2019-05-19T19:48:27.106Z,14.65
2019-05-19T19:50:56.160Z,14.66
2019-05-19T19:53:25.010Z,14.69
2019-05-19T19:55:54.945Z,14.59
2019-05-19T19:58:25.936Z,14.55
2019-05-19T20:00:56.261Z,14.47
2019-05-19T20:03:25.518Z,14.48
2019-05-19T20:05:54.458Z,14.43
2019-05-19T20:08:24.234Z,14.38
2019-05-19T20:10:56.776Z,14.42
2019-05-19T20:13:26.615Z,14.43
2019-05-19T20:15:56.687Z,14.43
2019-05-19T20:18:25.566Z,14.39
2019-05-19T20:20:54.512Z,14.36
2019-05-19T20:23:23.461Z,14.38
2019-05-19T20:25:52.347Z,14.37
2019-05-19T20:28:21.222Z,14.39
2019-05-19T20:30:51.508Z,14.42
2019-05-19T20:33:20.475Z,14.46
2019-05-19T20:35:50.389Z,14.44
2019-05-19T20:38:19.366Z,14.49
2019-05-19T20:40:48.749Z,14.49
2019-05-19T20:43:17.798Z,14.54
2019-05-19T20:45:46.654Z,14.54
2019-05-19T20:48:15.694Z,14.56
2019-05-19T20:50:44.548Z,14.63
2019-05-19T20:53:13.805Z,14.67
2019-05-19T20:55:42.977Z,14.66
2019-05-19T20:58:12.485Z,14.65
2019-05-19T21:00:50.028Z,14.68
2019-05-19T21:03:12.193Z,14.71
2019-05-19T21:05:44.351Z,14.75
2019-05-19T21:08:13.676Z,14.73
2019-05-19T21:10:42.584Z,14.73
2019-05-19T21:13:11.505Z,14.73
2019-05-19T21:15:42.074Z,14.71
2019-05-19T21:18:10.964Z,14.70
2019-05-19T21:20:39.971Z,14.66
2019-05-19T21:23:09.157Z,14.58
2019-05-19T21:25:38.075Z,14.53
2019-05-19T21:28:07.077Z,14.42
2019-05-19T21:30:36.064Z,14.40
2019-05-19T21:33:05.043Z,14.43
2019-05-19T21:35:34.461Z,14.46
2019-05-19T21:38:03.394Z,14.47
2019-05-19T21:40:32.358Z,14.49
2019-05-19T21:43:02.208Z,14.48
2019-05-19T21:45:31.102Z,14.47
2019-05-19T21:47:59.986Z,14.45
2019-05-19T21:50:28.971Z,14.37
2019-05-19T21:52:57.927Z,14.30
2019-05-19T21:55:26.760Z,14.23
2019-05-19T21:57:55.645Z,14.31
2019-05-19T22:00:30.006Z,14.31
2019-05-19T22:03:01.227Z,14.29
2019-05-19T22:05:29.999Z,14.26
2019-05-19T22:08:08.379Z,14.21
2019-05-19T22:10:37.209Z,14.10
2019-05-19T22:13:07.293Z,13.98
2019-05-19T22:15:36.423Z,13.98
2019-05-19T22:18:05.492Z,14.01
2019-05-19T22:20:34.789Z,13.99
2019-05-19T22:23:06.028Z,13.97
2019-05-19T22:25:35.089Z,13.95
2019-05-19T22:28:04.280Z,13.93
2019-05-19T22:30:33.113Z,13.94
2019-05-19T22:33:01.916Z,13.93
2019-05-19T22:35:30.818Z,13.92
2019-05-19T22:37:59.576Z,13.88
2019-05-19T22:40:30.212Z,13.87
2019-05-19T22:42:58.939Z,13.86
2019-05-19T22:45:27.763Z,13.83
2019-05-19T22:47:57.198Z,13.82
2019-05-19T22:50:26.012Z,13.82
2019-05-19T22:52:54.809Z,13.76
2019-05-19T22:55:24.012Z,13.75
2019-05-19T22:57:52.824Z,13.78
2019-05-19T23:00:22.566Z,13.79
2019-05-19T23:02:51.749Z,13.81
2019-05-19T23:05:20.467Z,13.83
2019-05-19T23:07:49.308Z,13.89
2019-05-19T23:10:18.197Z,13.84
2019-05-19T23:12:47.398Z,13.83
2019-05-19T23:15:16.552Z,13.83
2019-05-19T23:17:45.503Z,13.84
2019-05-19T23:20:14.947Z,13.86
2019-05-19T23:22:43.870Z,13.78
2019-05-19T23:25:12.739Z,13.77
2019-05-19T23:27:41.846Z,13.76
2019-05-19T23:30:10.978Z,13.78
2019-05-19T23:32:42.635Z,13.80
2019-05-19T23:35:11.978Z,13.83
2019-05-19T23:37:40.912Z,13.85
2019-05-19T23:40:10.079Z,13.87
2019-05-19T23:42:38.910Z,13.90
2019-05-19T23:45:07.774Z,13.90
2019-05-19T23:47:36.533Z,13.91
2019-05-19T23:50:05.563Z,13.91
2019-05-19T23:52:34.360Z,13.92
2019-05-19T23:55:03.408Z,13.93
2019-05-19T23:57:32.211Z,13.93
